Time,TemperatureF,DewpointF,PressureIn,WindDirection,WindDirectionDegrees,WindSpeedMPH,WindSpeedGustMPH,Humidity,HourlyPrecipIn,Conditions,Clouds,dailyrainin,SolarRadiationWatts/m^2,SoftwareType,DateUTC
2013-05-04 00:05:00,33.1,31.3,30.32,ENE,58,2.0,12.0,93,0.00,,,0.00,0.0,meteohub,2013-05-04 05:05:00,
2013-05-04 00:12:00,33.1,31.3,30.32,NE,49,3.0,7.0,93,0.00,,,0.00,0.0,meteohub,2013-05-04 05:12:00,
2013-05-04 00:17:00,33.1,31.3,30.32,NE,53,2.0,7.0,93,0.00,,,0.00,0.0,meteohub,2013-05-04 05:17:00,
2013-05-04 00:22:00,33.1,31.3,30.32,NNW,348,3.0,7.0,93,0.00,,,0.00,0.0,meteohub,2013-05-04 05:22:00,
2013-05-04 00:28:00,33.1,31.3,30.32,NNE,24,3.0,9.0,93,0.00,,,0.00,0.0,meteohub,2013-05-04 05:28:00,
2013-05-04 00:34:00,33.1,31.3,30.32,NE,40,3.0,9.0,93,0.00,,,0.00,0.0,meteohub,2013-05-04 05:34:00,
2013-05-04 00:40:00,33.3,31.5,30.32,NNE,21,3.0,8.0,93,0.00,,,0.00,0.0,meteohub,2013-05-04 05:40:00,
2013-05-04 00:47:00,33.3,31.5,30.31,NNE,22,3.0,8.0,93,0.00,,,0.00,0.0,meteohub,2013-05-04 05:47:00,
2013-05-04 00:53:00,33.3,31.5,30.31,North,351,3.0,8.0,93,0.00,,,0.00,0.0,meteohub,2013-05-04 05:53:00,
2013-05-04 00:59:00,33.3,31.5,30.31,NNE,32,4.0,11.0,93,0.00,,,0.00,0.0,meteohub,2013-05-04 05:59:00,
2013-05-04 01:05:00,33.3,31.5,30.31,NNE,24,3.0,11.0,93,0.00,,,0.00,0.0,meteohub,2013-05-04 06:05:00,
2013-05-04 01:11:00,33.1,31.3,30.30,NNE,23,4.0,11.0,93,0.00,,,0.00,0.0,meteohub,2013-05-04 06:11:00,
2013-05-04 01:17:00,33.1,31.3,30.30,NNE,23,3.0,11.0,93,0.00,,,0.00,0.0,meteohub,2013-05-04 06:17:00,
2013-05-04 01:24:00,33.1,31.3,30.30,NE,38,2.0,15.0,93,0.00,,,0.00,0.0,meteohub,2013-05-04 06:24:00,
2013-05-04 01:30:00,33.3,31.5,30.30,NE,34,3.0,15.0,93,0.00,,,0.00,0.0,meteohub,2013-05-04 06:30:00,
2013-05-04 01:36:00,33.3,31.5,30.30,NNW,336,3.0,13.0,93,0.00,,,0.00,0.0,meteohub,2013-05-04 06:36:00,
2013-05-04 01:42:00,33.3,31.5,30.30,NE,42,4.0,10.0,93,0.00,,,0.00,0.0,meteohub,2013-05-04 06:42:00,
2013-05-04 01:48:00,33.3,31.5,30.30,NNE,17,1.0,10.0,93,0.00,,,0.00,0.0,meteohub,2013-05-04 06:48:00,
2013-05-04 01:54:00,33.3,31.5,30.30,North,5,4.0,8.0,93,0.00,,,0.00,0.0,meteohub,2013-05-04 06:54:00,
2013-05-04 02:00:00,33.3,31.5,30.30,NE,36,4.0,9.0,93,0.00,,,0.00,0.0,meteohub,2013-05-04 07:00:00,
2013-05-04 02:07:00,33.3,31.5,30.30,NNW,348,6.0,9.0,93,0.00,,,0.00,0.0,meteohub,2013-05-04 07:07:00,
2013-05-04 02:13:00,33.3,31.5,30.29,NNW,342,5.0,10.0,93,0.00,,,0.00,0.0,meteohub,2013-05-04 07:13:00,
2013-05-04 02:19:00,33.3,31.5,30.29,NNE,26,4.0,10.0,93,0.00,,,0.00,0.0,meteohub,2013-05-04 07:19:00,
2013-05-04 02:25:00,33.3,31.5,30.29,NE,55,4.0,10.0,93,0.00,,,0.00,0.0,meteohub,2013-05-04 07:25:00,
2013-05-04 02:31:00,33.3,31.5,30.29,North,5,2.0,8.0,93,0.00,,,0.00,0.0,meteohub,2013-05-04 07:31:00,
2013-05-04 02:37:00,33.3,31.6,30.29,North,355,2.0,9.0,94,0.00,,,0.00,0.0,meteohub,2013-05-04 07:37:00,
2013-05-04 02:43:00,33.3,31.6,30.28,NE,49,5.0,10.0,94,0.00,,,0.00,0.0,meteohub,2013-05-04 07:43:00,
2013-05-04 02:50:00,33.3,31.6,30.29,NE,49,4.0,10.0,94,0.00,,,0.00,0.0,meteohub,2013-05-04 07:50:00,
2013-05-04 02:56:00,33.3,31.6,30.29,ENE,61,2.0,12.0,94,0.00,,,0.00,0.0,meteohub,2013-05-04 07:56:00,
2013-05-04 03:02:00,33.3,31.6,30.29,NE,41,9.0,12.0,94,0.00,,,0.00,0.0,meteohub,2013-05-04 08:02:00,
2013-05-04 03:08:00,33.3,31.6,30.29,NE,39,3.0,11.0,94,0.00,,,0.00,0.0,meteohub,2013-05-04 08:08:00,
2013-05-04 03:14:00,33.3,31.6,30.30,NE,44,7.0,10.0,94,0.00,,,0.00,0.0,meteohub,2013-05-04 08:14:00,
2013-05-04 03:20:00,33.1,31.5,30.30,NE,40,3.0,10.0,94,0.00,,,0.00,0.0,meteohub,2013-05-04 08:20:00,
2013-05-04 03:27:00,33.3,32.0,30.30,NE,49,4.0,10.0,95,0.00,,,0.00,0.0,meteohub,2013-05-04 08:27:00,
2013-05-04 03:32:00,33.1,31.8,30.30,NE,38,1.0,10.0,95,0.00,,,0.00,0.0,meteohub,2013-05-04 08:32:00,
2013-05-04 03:37:00,33.3,32.0,30.30,NNE,31,4.0,11.0,95,0.00,,,0.00,0.0,meteohub,2013-05-04 08:37:00,
2013-05-04 03:43:00,33.1,31.8,30.30,North,351,4.0,11.0,95,0.00,,,0.00,0.0,meteohub,2013-05-04 08:43:00,
2013-05-04 03:49:00,33.3,32.0,30.29,NW,311,4.0,8.0,95,0.00,,,0.00,0.0,meteohub,2013-05-04 08:49:00,
2013-05-04 03:55:00,33.1,31.8,30.29,NE,51,4.0,11.0,95,0.00,,,0.00,0.0,meteohub,2013-05-04 08:55:00,
2013-05-04 04:01:00,33.3,32.0,30.29,NNW,347,5.0,11.0,95,0.00,,,0.00,0.0,meteohub,2013-05-04 09:01:00,
2013-05-04 04:07:00,33.1,31.8,30.28,NE,39,4.0,10.0,95,0.00,,,0.00,0.0,meteohub,2013-05-04 09:07:00,
2013-05-04 04:14:00,33.1,31.8,30.29,NNW,345,4.0,12.0,95,0.00,,,0.00,0.0,meteohub,2013-05-04 09:14:00,
2013-05-04 04:20:00,33.1,31.8,30.29,NNE,32,2.0,12.0,95,0.01,,,0.01,0.0,meteohub,2013-05-04 09:20:00,
2013-05-04 04:26:00,33.1,31.8,30.29,NNW,347,4.0,9.0,95,0.02,,,0.02,0.0,meteohub,2013-05-04 09:26:00,
2013-05-04 04:32:00,33.1,31.8,30.29,NNE,26,3.0,10.0,95,0.02,,,0.02,0.0,meteohub,2013-05-04 09:32:00,
2013-05-04 04:38:00,33.1,32.0,30.28,North,5,6.0,12.0,96,0.02,,,0.02,0.0,meteohub,2013-05-04 09:38:00,
2013-05-04 04:44:00,33.1,32.0,30.28,NE,36,4.0,12.0,96,0.03,,,0.03,0.0,meteohub,2013-05-04 09:44:00,
2013-05-04 04:51:00,33.1,32.0,30.28,NNE,32,2.0,12.0,96,0.03,,,0.03,0.0,meteohub,2013-05-04 09:51:00,
2013-05-04 04:57:00,33.1,32.0,30.28,ENE,60,8.0,9.0,96,0.03,,,0.03,0.0,meteohub,2013-05-04 09:57:00,
2013-05-04 05:03:00,33.1,32.0,30.27,NNE,30,2.0,9.0,96,0.03,,,0.03,0.0,meteohub,2013-05-04 10:03:00,
2013-05-04 05:09:00,33.1,32.0,30.28,NNE,26,4.0,10.0,96,0.03,,,0.03,0.0,meteohub,2013-05-04 10:09:00,
2013-05-04 05:15:00,33.1,32.0,30.27,NE,34,2.0,10.0,96,0.02,,,0.03,0.0,meteohub,2013-05-04 10:15:00,
2013-05-04 05:22:00,33.1,32.0,30.27,NNE,28,3.0,10.0,96,0.02,,,0.03,0.0,meteohub,2013-05-04 10:22:00,
2013-05-04 05:28:00,33.1,32.0,30.28,NE,49,3.0,10.0,96,0.01,,,0.03,0.0,meteohub,2013-05-04 10:28:00,
2013-05-04 05:34:00,33.1,32.0,30.28,NNE,28,1.0,11.0,96,0.02,,,0.04,0.0,meteohub,2013-05-04 10:34:00,
2013-05-04 05:40:00,33.1,32.0,30.28,NNE,18,5.0,11.0,96,0.02,,,0.04,0.0,meteohub,2013-05-04 10:40:00,
2013-05-04 05:46:00,33.1,32.0,30.28,NE,38,4.0,13.0,96,0.01,,,0.04,0.0,meteohub,2013-05-04 10:46:00,
2013-05-04 05:52:00,33.1,32.0,30.28,NNE,27,5.0,13.0,96,0.01,,,0.04,0.0,meteohub,2013-05-04 10:52:00,
2013-05-04 05:59:00,33.1,32.0,30.29,NNE,13,2.0,14.0,96,0.01,,,0.04,0.0,meteohub,2013-05-04 10:59:00,
2013-05-04 06:05:00,33.1,32.0,30.29,NNE,22,3.0,14.0,96,0.01,,,0.04,0.0,meteohub,2013-05-04 11:05:00,
2013-05-04 06:11:00,33.1,32.0,30.29,NNE,18,3.0,14.0,96,0.01,,,0.04,0.0,meteohub,2013-05-04 11:11:00,
2013-05-04 06:17:00,33.1,32.0,30.29,North,349,3.0,12.0,96,0.01,,,0.04,0.0,meteohub,2013-05-04 11:17:00,
2013-05-04 06:23:00,33.1,32.0,30.29,NE,42,5.0,12.0,96,0.01,,,0.04,5.0,meteohub,2013-05-04 11:23:00,
2013-05-04 06:30:00,33.3,32.2,30.28,NNE,24,7.0,10.0,96,0.01,,,0.04,7.0,meteohub,2013-05-04 11:30:00,
2013-05-04 06:36:00,33.3,32.2,30.28,North,5,6.0,10.0,96,0.01,,,0.04,9.0,meteohub,2013-05-04 11:36:00,
2013-05-04 06:42:00,33.3,32.2,30.28,NE,41,8.0,10.0,96,0.01,,,0.05,14.0,meteohub,2013-05-04 11:42:00,
2013-05-04 06:49:00,33.3,32.2,30.28,NNE,29,3.0,10.0,96,0.01,,,0.05,12.0,meteohub,2013-05-04 11:49:00,
2013-05-04 06:55:00,33.3,32.2,30.28,NNE,12,6.0,8.0,96,0.01,,,0.05,14.0,meteohub,2013-05-04 11:55:00,
2013-05-04 07:00:00,33.4,32.4,30.28,North,5,2.0,8.0,96,0.01,,,0.05,14.0,meteohub,2013-05-04 12:00:00,
2013-05-04 07:07:00,33.3,32.2,30.28,North,5,2.0,9.0,96,0.02,,,0.06,19.0,meteohub,2013-05-04 12:07:00,
2013-05-04 07:13:00,33.4,32.4,30.28,NNE,32,4.0,9.0,96,0.02,,,0.06,23.0,meteohub,2013-05-04 12:13:00,
2013-05-04 07:19:00,33.4,32.4,30.29,NNE,33,4.0,8.0,96,0.02,,,0.06,18.0,meteohub,2013-05-04 12:19:00,
2013-05-04 07:31:00,33.4,32.4,30.29,NE,43,3.0,8.0,96,0.02,,,0.07,19.0,meteohub,2013-05-04 12:31:00,
2013-05-04 07:37:00,33.4,32.4,30.29,NE,35,3.0,15.0,96,0.03,,,0.07,28.0,meteohub,2013-05-04 12:37:00,
2013-05-04 07:43:00,33.6,32.5,30.30,NNE,23,5.0,15.0,96,0.03,,,0.08,33.0,meteohub,2013-05-04 12:43:00,
2013-05-04 07:49:00,33.6,32.5,30.30,NE,34,1.0,15.0,96,0.03,,,0.08,35.0,meteohub,2013-05-04 12:49:00,
2013-05-04 07:56:00,33.6,32.5,30.30,NNE,31,3.0,10.0,96,0.03,,,0.08,42.0,meteohub,2013-05-04 12:56:00,
2013-05-04 08:02:00,33.6,32.5,30.30,NE,45,2.0,10.0,96,0.03,,,0.08,42.0,meteohub,2013-05-04 13:02:00,
2013-05-04 08:06:00,33.6,32.5,30.29,NNE,17,4.0,11.0,96,0.02,,,0.08,54.0,meteohub,2013-05-04 13:06:00,
2013-05-04 08:12:00,33.8,32.7,30.30,NE,35,3.0,11.0,96,0.02,,,0.08,47.0,meteohub,2013-05-04 13:12:00,
2013-05-04 08:18:00,33.8,32.7,30.30,NE,42,7.0,11.0,96,0.02,,,0.08,47.0,meteohub,2013-05-04 13:18:00,
2013-05-04 08:24:00,33.8,32.7,30.30,NE,40,5.0,9.0,96,0.01,,,0.08,51.0,meteohub,2013-05-04 13:24:00,
2013-05-04 08:31:00,34.0,32.9,30.29,North,5,3.0,9.0,96,0.01,,,0.08,65.0,meteohub,2013-05-04 13:31:00,
2013-05-04 08:37:00,34.2,33.1,30.29,North,5,3.0,7.0,96,0.00,,,0.08,93.0,meteohub,2013-05-04 13:37:00,
2013-05-04 08:43:00,34.3,33.3,30.29,North,5,5.0,9.0,96,0.00,,,0.08,88.0,meteohub,2013-05-04 13:43:00,
2013-05-04 08:49:00,34.3,33.3,30.29,NE,40,5.0,11.0,96,0.00,,,0.08,88.0,meteohub,2013-05-04 13:49:00,
2013-05-04 08:55:00,34.5,33.4,30.29,NE,53,3.0,11.0,96,0.00,,,0.08,88.0,meteohub,2013-05-04 13:55:00,
2013-05-04 09:01:00,34.7,33.6,30.29,North,5,2.0,7.0,96,0.00,,,0.08,76.0,meteohub,2013-05-04 14:01:00,
2013-05-04 09:07:00,34.7,33.6,30.29,NNE,28,3.0,7.0,96,0.00,,,0.08,139.0,meteohub,2013-05-04 14:07:00,
2013-05-04 09:14:00,34.9,33.8,30.29,North,355,2.0,7.0,96,0.00,,,0.08,146.0,meteohub,2013-05-04 14:14:00,
2013-05-04 09:20:00,35.2,34.2,30.30,North,355,2.0,7.0,96,0.00,,,0.08,83.0,meteohub,2013-05-04 14:20:00,
2013-05-04 09:26:00,35.2,34.2,30.30,NNE,22,6.0,6.0,96,0.00,,,0.08,120.0,meteohub,2013-05-04 14:26:00,
2013-05-04 09:32:00,35.2,34.2,30.30,North,355,4.0,7.0,96,0.00,,,0.08,128.0,meteohub,2013-05-04 14:32:00,
2013-05-04 09:38:00,35.4,34.3,30.30,NE,36,5.0,8.0,96,0.00,,,0.08,163.0,meteohub,2013-05-04 14:38:00,
2013-05-04 09:44:00,35.8,34.7,30.29,NE,48,2.0,8.0,96,0.00,,,0.08,153.0,meteohub,2013-05-04 14:44:00,
2013-05-04 09:51:00,35.8,34.7,30.30,ENE,57,2.0,8.0,96,0.00,,,0.08,155.0,meteohub,2013-05-04 14:51:00,
2013-05-04 09:57:00,36.1,35.1,30.30,NNE,30,4.0,12.0,96,0.00,,,0.08,156.0,meteohub,2013-05-04 14:57:00,
2013-05-04 10:03:00,36.3,35.1,30.30,NE,40,2.0,12.0,95,0.00,,,0.08,130.0,meteohub,2013-05-04 15:03:00,
2013-05-04 10:09:00,36.5,35.4,30.30,NE,49,8.0,10.0,96,0.00,,,0.08,218.0,meteohub,2013-05-04 15:09:00,
2013-05-04 10:15:00,36.7,35.4,30.30,NE,49,2.0,9.0,95,0.00,,,0.08,244.0,meteohub,2013-05-04 15:15:00,
2013-05-04 10:21:00,37.0,35.8,30.30,NNW,337,4.0,9.0,95,0.00,,,0.08,153.0,meteohub,2013-05-04 15:21:00,
2013-05-04 10:27:00,37.0,35.8,30.30,NE,50,3.0,11.0,95,0.00,,,0.08,149.0,meteohub,2013-05-04 15:27:00,
2013-05-04 10:34:00,37.0,35.8,30.30,North,0,4.0,11.0,95,0.00,,,0.08,169.0,meteohub,2013-05-04 15:34:00,
2013-05-04 10:40:00,37.2,36.0,30.30,NNW,344,5.0,11.0,95,0.00,,,0.08,227.0,meteohub,2013-05-04 15:40:00,
2013-05-04 10:46:00,37.4,35.8,30.30,NNE,26,4.0,9.0,94,0.00,,,0.08,223.0,meteohub,2013-05-04 15:46:00,
2013-05-04 10:52:00,37.6,36.0,30.30,NE,44,3.0,10.0,94,0.00,,,0.08,302.0,meteohub,2013-05-04 15:52:00,
2013-05-04 10:58:00,37.8,36.1,30.29,NNW,339,2.0,10.0,94,0.00,,,0.08,271.0,meteohub,2013-05-04 15:58:00,
2013-05-04 11:04:00,37.9,36.3,30.29,NE,45,4.0,10.0,94,0.00,,,0.08,265.0,meteohub,2013-05-04 16:04:00,
2013-05-04 11:10:00,38.5,36.9,30.28,NE,42,3.0,9.0,94,0.00,,,0.08,348.0,meteohub,2013-05-04 16:10:00,
2013-05-04 11:17:00,38.8,37.0,30.29,NE,43,5.0,11.0,93,0.00,,,0.08,253.0,meteohub,2013-05-04 16:17:00,
2013-05-04 11:23:00,38.8,37.0,30.28,North,0,2.0,11.0,93,0.00,,,0.08,239.0,meteohub,2013-05-04 16:23:00,
2013-05-04 11:29:00,38.8,36.7,30.29,ENE,63,2.0,7.0,92,0.00,,,0.08,250.0,meteohub,2013-05-04 16:29:00,
2013-05-04 11:35:00,39.0,37.2,30.29,NNW,344,3.0,10.0,93,0.00,,,0.08,301.0,meteohub,2013-05-04 16:35:00,
2013-05-04 11:41:00,39.4,37.2,30.29,NNE,24,4.0,9.0,92,0.00,,,0.08,364.0,meteohub,2013-05-04 16:41:00,
2013-05-04 11:47:00,39.7,37.9,30.29,NNE,13,3.0,9.0,93,0.00,,,0.08,390.0,meteohub,2013-05-04 16:47:00,
2013-05-04 11:54:00,39.7,37.4,30.30,NE,53,4.0,9.0,91,0.00,,,0.08,287.0,meteohub,2013-05-04 16:54:00,
2013-05-04 12:00:00,39.7,37.4,30.29,North,5,3.0,10.0,91,0.00,,,0.08,236.0,meteohub,2013-05-04 17:00:00,
2013-05-04 12:06:00,39.7,37.4,30.28,North,351,6.0,10.0,91,0.00,,,0.08,260.0,meteohub,2013-05-04 17:06:00,
2013-05-04 12:12:00,39.9,37.8,30.28,North,9,5.0,9.0,92,0.00,,,0.08,352.0,meteohub,2013-05-04 17:12:00,
2013-05-04 12:18:00,40.3,38.1,30.29,NE,49,4.0,9.0,92,0.00,,,0.08,362.0,meteohub,2013-05-04 17:18:00,
2013-05-04 12:24:00,41.0,38.8,30.30,North,350,6.0,8.0,92,0.00,,,0.08,367.0,meteohub,2013-05-04 17:24:00,
2013-05-04 12:30:00,41.0,38.7,30.29,NNW,329,4.0,8.0,91,0.00,,,0.08,250.0,meteohub,2013-05-04 17:30:00,
2013-05-04 12:37:00,41.0,38.7,30.29,NNE,12,5.0,7.0,91,0.00,,,0.08,281.0,meteohub,2013-05-04 17:37:00,
2013-05-04 12:43:00,41.2,38.5,30.30,NE,39,1.0,7.0,90,0.00,,,0.08,229.0,meteohub,2013-05-04 17:43:00,
2013-05-04 12:49:00,41.4,38.7,30.29,NE,44,3.0,7.0,90,0.00,,,0.08,264.0,meteohub,2013-05-04 17:49:00,
2013-05-04 12:55:00,41.5,38.8,30.29,NNE,13,3.0,6.0,90,0.00,,,0.08,302.0,meteohub,2013-05-04 17:55:00,
2013-05-04 13:01:00,41.5,38.8,30.29,NE,38,3.0,10.0,90,0.00,,,0.08,339.0,meteohub,2013-05-04 18:01:00,
2013-05-04 13:08:00,42.1,39.4,30.29,East,84,8.0,10.0,90,0.00,,,0.08,450.0,meteohub,2013-05-04 18:08:00,
2013-05-04 13:14:00,42.6,39.9,30.28,NNW,343,4.0,10.0,90,0.00,,,0.08,541.0,meteohub,2013-05-04 18:14:00,
2013-05-04 13:20:00,43.2,40.1,30.28,NNE,30,2.0,11.0,89,0.00,,,0.08,438.0,meteohub,2013-05-04 18:20:00,
2013-05-04 13:26:00,43.2,39.6,30.28,North,10,5.0,7.0,87,0.00,,,0.08,373.0,meteohub,2013-05-04 18:26:00,
2013-05-04 13:32:00,43.2,39.9,30.28,NNE,20,4.0,7.0,88,0.00,,,0.08,367.0,meteohub,2013-05-04 18:32:00,
2013-05-04 13:38:00,43.2,39.9,30.28,NNW,330,6.0,7.0,88,0.00,,,0.08,429.0,meteohub,2013-05-04 18:38:00,
2013-05-04 13:44:00,43.3,39.7,30.28,North,355,3.0,7.0,87,0.00,,,0.08,396.0,meteohub,2013-05-04 18:44:00,
2013-05-04 13:51:00,43.5,40.3,30.28,NE,42,4.0,7.0,88,0.00,,,0.08,381.0,meteohub,2013-05-04 18:51:00,
2013-05-04 13:57:00,44.1,40.1,30.28,NNW,345,2.0,9.0,86,0.00,,,0.08,605.0,meteohub,2013-05-04 18:57:00,
2013-05-04 14:03:00,44.4,40.5,30.28,NNE,20,0.0,8.0,86,0.00,,,0.08,353.0,meteohub,2013-05-04 19:03:00,
2013-05-04 14:09:00,44.4,40.3,30.28,NNW,342,5.0,7.0,85,0.00,,,0.08,308.0,meteohub,2013-05-04 19:09:00,
2013-05-04 14:15:00,44.4,40.5,30.28,WNW,296,3.0,7.0,86,0.00,,,0.08,295.0,meteohub,2013-05-04 19:15:00,
2013-05-04 14:21:00,44.4,40.5,30.28,North,355,3.0,7.0,86,0.00,,,0.08,332.0,meteohub,2013-05-04 19:21:00,
2013-05-04 14:27:00,44.4,40.3,30.28,NNE,13,2.0,7.0,85,0.00,,,0.08,339.0,meteohub,2013-05-04 19:27:00,
2013-05-04 14:34:00,44.6,40.6,30.28,NE,38,5.0,7.0,86,0.00,,,0.08,371.0,meteohub,2013-05-04 19:34:00,
2013-05-04 14:40:00,45.1,41.2,30.28,NNE,17,2.0,7.0,86,0.00,,,0.08,436.0,meteohub,2013-05-04 19:40:00,
2013-05-04 14:46:00,45.3,40.8,30.28,North,5,2.0,7.0,84,0.00,,,0.08,403.0,meteohub,2013-05-04 19:46:00,
2013-05-04 14:52:00,45.3,40.8,30.28,NNE,12,2.0,7.0,84,0.00,,,0.08,346.0,meteohub,2013-05-04 19:52:00,
2013-05-04 14:58:00,45.3,41.0,30.28,NW,320,3.0,7.0,85,0.00,,,0.08,258.0,meteohub,2013-05-04 19:58:00,
2013-05-04 15:04:00,45.0,40.5,30.28,North,0,4.0,6.0,84,0.00,,,0.08,278.0,meteohub,2013-05-04 20:04:00,
2013-05-04 15:11:00,45.1,40.8,30.28,NNE,32,2.0,7.0,85,0.00,,,0.08,313.0,meteohub,2013-05-04 20:11:00,
2013-05-04 15:17:00,45.1,40.8,30.28,NE,40,2.0,8.0,85,0.00,,,0.08,308.0,meteohub,2013-05-04 20:17:00,
2013-05-04 15:23:00,45.3,41.0,30.28,NNE,32,3.0,8.0,85,0.00,,,0.08,301.0,meteohub,2013-05-04 20:23:00,
2013-05-04 15:29:00,45.3,40.8,30.27,NNE,15,5.0,7.0,84,0.00,,,0.08,294.0,meteohub,2013-05-04 20:29:00,
2013-05-04 15:35:00,45.1,40.6,30.27,North,355,4.0,8.0,84,0.00,,,0.08,271.0,meteohub,2013-05-04 20:35:00,
2013-05-04 15:41:00,45.3,40.8,30.27,North,350,3.0,9.0,84,0.00,,,0.08,304.0,meteohub,2013-05-04 20:41:00,
2013-05-04 15:47:00,45.3,41.0,30.27,North,0,3.0,9.0,85,0.00,,,0.08,279.0,meteohub,2013-05-04 20:47:00,
2013-05-04 15:54:00,45.5,41.0,30.27,North,0,2.0,8.0,84,0.00,,,0.08,251.0,meteohub,2013-05-04 20:54:00,
2013-05-04 16:00:00,45.7,41.2,30.27,NW,315,2.0,8.0,84,0.00,,,0.08,258.0,meteohub,2013-05-04 21:00:00,
2013-05-04 16:06:00,45.5,41.0,30.27,NE,38,5.0,8.0,84,0.00,,,0.08,288.0,meteohub,2013-05-04 21:06:00,
2013-05-04 16:12:00,45.5,41.0,30.27,North,355,2.0,8.0,84,0.00,,,0.08,334.0,meteohub,2013-05-04 21:12:00,
2013-05-04 16:18:00,45.9,41.4,30.26,NNW,346,3.0,9.0,84,0.00,,,0.08,438.0,meteohub,2013-05-04 21:18:00,
2013-05-04 16:24:00,46.6,42.1,30.26,NE,53,6.0,9.0,84,0.00,,,0.08,589.0,meteohub,2013-05-04 21:24:00,
2013-05-04 16:30:00,46.8,41.5,30.26,NE,40,3.0,9.0,82,0.00,,,0.08,610.0,meteohub,2013-05-04 21:30:00,
2013-05-04 16:37:00,46.9,41.7,30.26,North,0,4.0,11.0,82,0.00,,,0.08,432.0,meteohub,2013-05-04 21:37:00,
2013-05-04 16:43:00,47.1,41.9,30.26,NW,318,4.0,10.0,82,0.00,,,0.08,441.0,meteohub,2013-05-04 21:43:00,
2013-05-04 16:49:00,47.1,41.9,30.26,NNW,348,4.0,12.0,82,0.00,,,0.08,345.0,meteohub,2013-05-04 21:49:00,
2013-05-04 16:55:00,47.5,42.3,30.26,NNW,340,2.0,12.0,82,0.00,,,0.08,434.0,meteohub,2013-05-04 21:55:00,
2013-05-04 17:01:00,47.8,42.6,30.25,North,350,4.0,11.0,82,0.00,,,0.08,422.0,meteohub,2013-05-04 22:01:00,
2013-05-04 17:07:00,48.0,42.4,30.26,ENE,58,4.0,11.0,81,0.00,,,0.08,211.0,meteohub,2013-05-04 22:07:00,
2013-05-04 17:14:00,47.8,42.3,30.26,North,5,6.0,11.0,81,0.00,,,0.08,325.0,meteohub,2013-05-04 22:14:00,
2013-05-04 17:20:00,47.8,42.6,30.26,North,5,5.0,11.0,82,0.00,,,0.08,285.0,meteohub,2013-05-04 22:20:00,
2013-05-04 17:26:00,48.0,42.8,30.26,NNE,22,6.0,9.0,82,0.00,,,0.08,529.0,meteohub,2013-05-04 22:26:00,
2013-05-04 17:32:00,48.0,42.8,30.26,NNE,22,4.0,11.0,82,0.00,,,0.08,288.0,meteohub,2013-05-04 22:32:00,
2013-05-04 17:38:00,48.0,42.4,30.26,NNE,13,6.0,11.0,81,0.00,,,0.08,285.0,meteohub,2013-05-04 22:38:00,
2013-05-04 17:44:00,47.8,42.6,30.26,North,355,2.0,12.0,82,0.00,,,0.08,269.0,meteohub,2013-05-04 22:44:00,
2013-05-04 17:50:00,48.0,42.8,30.26,NE,44,5.0,12.0,82,0.00,,,0.08,250.0,meteohub,2013-05-04 22:50:00,
2013-05-04 17:57:00,48.0,42.8,30.26,North,9,3.0,10.0,82,0.00,,,0.08,262.0,meteohub,2013-05-04 22:57:00,
2013-05-04 18:02:00,48.2,43.3,30.26,NE,42,3.0,8.0,83,0.00,,,0.08,229.0,meteohub,2013-05-04 23:02:00,
2013-05-04 18:07:00,48.2,43.3,30.26,NNE,30,1.0,10.0,83,0.00,,,0.08,288.0,meteohub,2013-05-04 23:07:00,
2013-05-04 18:13:00,48.0,42.8,30.26,NE,34,2.0,10.0,82,0.00,,,0.08,169.0,meteohub,2013-05-04 23:13:00,
2013-05-04 18:19:00,47.8,42.6,30.26,North,355,3.0,10.0,82,0.00,,,0.08,179.0,meteohub,2013-05-04 23:19:00,
2013-05-04 18:25:00,47.7,42.4,30.26,NE,51,5.0,9.0,82,0.00,,,0.08,160.0,meteohub,2013-05-04 23:25:00,
2013-05-04 18:31:00,47.5,42.6,30.26,NE,40,3.0,9.0,83,0.00,,,0.08,144.0,meteohub,2013-05-04 23:31:00,
2013-05-04 18:38:00,47.5,42.6,30.26,East,97,5.0,9.0,83,0.00,,,0.08,109.0,meteohub,2013-05-04 23:38:00,
2013-05-04 18:44:00,47.1,42.6,30.26,North,5,1.0,8.0,84,0.00,,,0.08,100.0,meteohub,2013-05-04 23:44:00,
2013-05-04 18:50:00,46.9,42.4,30.26,NNE,22,2.0,8.0,84,0.00,,,0.08,109.0,meteohub,2013-05-04 23:50:00,
2013-05-04 18:56:00,46.8,42.3,30.27,North,355,3.0,12.0,84,0.00,,,0.08,104.0,meteohub,2013-05-04 23:56:00,
2013-05-04 19:02:00,46.8,42.4,30.27,NNE,20,4.0,13.0,85,0.00,,,0.08,97.0,meteohub,2013-05-05 00:02:00,
2013-05-04 19:08:00,46.6,42.3,30.27,NW,326,4.0,13.0,85,0.00,,,0.08,63.0,meteohub,2013-05-05 00:08:00,
2013-05-04 19:15:00,46.2,41.9,30.27,NNE,18,4.0,9.0,85,0.00,,,0.08,49.0,meteohub,2013-05-05 00:15:00,
2013-05-04 19:21:00,45.9,41.9,30.27,NNW,343,4.0,10.0,86,0.00,,,0.08,51.0,meteohub,2013-05-05 00:21:00,
2013-05-04 19:27:00,45.9,41.9,30.27,North,5,3.0,11.0,86,0.00,,,0.08,44.0,meteohub,2013-05-05 00:27:00,
2013-05-04 19:33:00,45.7,41.7,30.27,NNE,28,4.0,11.0,86,0.00,,,0.08,39.0,meteohub,2013-05-05 00:33:00,
2013-05-04 19:39:00,45.5,41.5,30.27,NNE,30,4.0,9.0,86,0.00,,,0.08,28.0,meteohub,2013-05-05 00:39:00,
2013-05-04 19:45:00,45.3,41.7,30.28,NE,47,2.0,9.0,87,0.00,,,0.08,25.0,meteohub,2013-05-05 00:45:00,
2013-05-04 19:52:00,45.1,41.5,30.28,NNE,27,2.0,9.0,87,0.00,,,0.08,21.0,meteohub,2013-05-05 00:52:00,
2013-05-04 19:58:00,44.8,41.2,30.28,North,5,3.0,9.0,87,0.00,,,0.08,18.0,meteohub,2013-05-05 00:58:00,
2013-05-04 20:04:00,44.6,41.2,30.28,NE,44,2.0,9.0,88,0.00,,,0.08,12.0,meteohub,2013-05-05 01:04:00,
2013-05-04 20:10:00,44.4,41.2,30.28,NNE,21,2.0,9.0,88,0.00,,,0.08,9.0,meteohub,2013-05-05 01:10:00,
2013-05-04 20:16:00,44.2,41.0,30.28,NNE,17,1.0,11.0,88,0.00,,,0.08,5.0,meteohub,2013-05-05 01:16:00,
2013-05-04 20:22:00,44.2,41.0,30.28,North,5,2.0,11.0,88,0.00,,,0.08,0.0,meteohub,2013-05-05 01:22:00,
2013-05-04 20:28:00,44.2,41.0,30.28,NNE,25,3.0,11.0,88,0.00,,,0.08,0.0,meteohub,2013-05-05 01:28:00,
2013-05-04 20:35:00,44.1,40.8,30.29,North,5,3.0,8.0,88,0.00,,,0.08,0.0,meteohub,2013-05-05 01:35:00,
2013-05-04 20:41:00,44.1,40.8,30.29,NE,37,4.0,9.0,88,0.00,,,0.08,0.0,meteohub,2013-05-05 01:41:00,
2013-05-04 20:47:00,43.9,40.6,30.29,North,355,4.0,9.0,88,0.00,,,0.08,0.0,meteohub,2013-05-05 01:47:00,
2013-05-04 20:53:00,43.5,40.3,30.30,North,9,4.0,10.0,88,0.00,,,0.08,0.0,meteohub,2013-05-05 01:53:00,
2013-05-04 20:59:00,43.3,40.3,30.30,NNE,21,4.0,10.0,89,0.00,,,0.08,0.0,meteohub,2013-05-05 01:59:00,
2013-05-04 21:05:00,43.2,40.1,30.30,NE,52,1.0,9.0,89,0.00,,,0.08,0.0,meteohub,2013-05-05 02:05:00,
2013-05-04 21:12:00,43.2,40.1,30.30,NE,37,4.0,9.0,89,0.00,,,0.08,0.0,meteohub,2013-05-05 02:12:00,
2013-05-04 21:17:00,43.0,39.9,30.30,NNW,347,4.0,9.0,89,0.00,,,0.08,0.0,meteohub,2013-05-05 02:17:00,
2013-05-04 21:22:00,43.0,39.7,30.30,NE,40,1.0,9.0,88,0.00,,,0.08,0.0,meteohub,2013-05-05 02:22:00,
2013-05-04 21:28:00,43.0,39.7,30.30,NE,41,6.0,9.0,88,0.00,,,0.08,0.0,meteohub,2013-05-05 02:28:00,
2013-05-04 21:34:00,42.6,39.4,30.30,NE,38,2.0,11.0,88,0.00,,,0.08,0.0,meteohub,2013-05-05 02:34:00,
2013-05-04 21:40:00,42.4,39.2,30.30,NE,39,2.0,11.0,88,0.00,,,0.08,0.0,meteohub,2013-05-05 02:40:00,
2013-05-04 21:46:00,42.4,39.2,30.31,NE,46,6.0,10.0,88,0.00,,,0.08,0.0,meteohub,2013-05-05 02:46:00,
2013-05-04 21:53:00,42.1,38.8,30.31,East,99,7.0,9.0,88,0.00,,,0.08,0.0,meteohub,2013-05-05 02:53:00,
2013-05-04 21:59:00,41.7,38.7,30.30,NNE,25,3.0,9.0,89,0.00,,,0.08,0.0,meteohub,2013-05-05 02:59:00,
2013-05-04 22:05:00,41.4,38.3,30.31,NNE,32,6.0,12.0,89,0.00,,,0.08,0.0,meteohub,2013-05-05 03:05:00,
2013-05-04 22:11:00,41.2,38.5,30.31,North,5,2.0,12.0,90,0.00,,,0.08,0.0,meteohub,2013-05-05 03:11:00,
2013-05-04 22:17:00,41.2,38.5,30.30,NNE,32,3.0,12.0,90,0.00,,,0.08,0.0,meteohub,2013-05-05 03:17:00,
2013-05-04 22:23:00,41.0,38.3,30.30,NNW,335,6.0,12.0,90,0.00,,,0.08,0.0,meteohub,2013-05-05 03:23:00,
2013-05-04 22:29:00,40.6,37.9,30.30,NNE,31,8.0,13.0,90,0.00,,,0.08,0.0,meteohub,2013-05-05 03:29:00,
2013-05-04 22:36:00,40.6,37.9,30.31,North,9,5.0,14.0,90,0.00,,,0.08,0.0,meteohub,2013-05-05 03:36:00,
2013-05-04 22:42:00,40.5,37.8,30.31,NE,34,4.0,14.0,90,0.00,,,0.08,0.0,meteohub,2013-05-05 03:42:00,
2013-05-04 22:48:00,40.5,37.8,30.31,NE,42,2.0,8.0,90,0.00,,,0.08,0.0,meteohub,2013-05-05 03:48:00,
2013-05-04 22:54:00,40.3,37.6,30.31,NW,320,6.0,8.0,90,0.00,,,0.08,0.0,meteohub,2013-05-05 03:54:00,
2013-05-04 23:00:00,40.3,37.6,30.31,NNW,330,5.0,9.0,90,0.00,,,0.08,0.0,meteohub,2013-05-05 04:00:00,
2013-05-04 23:02:00,40.1,37.4,30.31,NE,49,4.0,9.0,90,0.00,,,0.08,0.0,meteohub,2013-05-05 04:02:00,
2013-05-04 23:04:00,40.1,37.4,30.31,North,0,1.0,9.0,90,0.00,,,0.08,0.0,meteohub,2013-05-05 04:04:00,
2013-05-04 23:06:00,40.1,37.4,30.31,NNE,26,2.0,9.0,90,0.00,,,0.08,0.0,meteohub,2013-05-05 04:06:00,
2013-05-04 23:12:00,40.1,37.0,30.31,NNE,30,1.0,8.0,89,0.00,,,0.08,0.0,meteohub,2013-05-05 04:12:00,
2013-05-04 23:19:00,39.9,36.9,30.31,NNE,22,2.0,8.0,89,0.00,,,0.08,0.0,meteohub,2013-05-05 04:19:00,
2013-05-04 23:25:00,39.9,37.2,30.31,NNE,22,2.0,8.0,90,0.00,,,0.08,0.0,meteohub,2013-05-05 04:25:00,
2013-05-04 23:31:00,39.9,36.9,30.32,North,355,3.0,8.0,89,0.00,,,0.08,0.0,meteohub,2013-05-05 04:31:00,
2013-05-04 23:37:00,39.7,36.7,30.31,North,5,4.0,6.0,89,0.00,,,0.08,0.0,meteohub,2013-05-05 04:37:00,
2013-05-04 23:43:00,39.7,37.0,30.31,NNE,32,3.0,11.0,90,0.00,,,0.08,0.0,meteohub,2013-05-05 04:43:00,
2013-05-04 23:49:00,39.7,37.0,30.31,North,355,5.0,11.0,90,0.00,,,0.08,0.0,meteohub,2013-05-05 04:49:00,
2013-05-04 23:56:00,39.7,37.0,30.31,NE,53,3.0,11.0,90,0.00,,,0.08,0.0,meteohub,2013-05-05 04:56:00,